Time;durP1;ratioP1;P1;durP2;ratioP2;P2;SDS_P1;SDS_P2;PMS_P1;PMS_P2;Temp;Humidity;BMP_temperature;BMP_pressure;BME280_temperature;BME280_humidity;BME280_pressure;Samples;Min_cycle;Max_cycle;Signal;HPM_P1;HPM_P2
2023/10/18 02:01:36;;;;;;;8.50;7.30;;;;;;;5.69;100.00;99978.47;101275;1296;601348;-55
2023/10/18 02:04:11;;;;;;;10.20;7.30;;;;;;;6.15;100.00;99978.21;103493;1272;61586;-55
2023/10/18 02:06:39;;;;;;;9.20;6.30;;;;;;;6.17;100.00;99976.78;103941;1263;60103;-55
2023/10/18 02:09:10;;;;;;;12.00;7.40;;;;;;;6.15;100.00;99975.60;104031;1266;70783;-55
2023/10/18 02:11:38;;;;;;;9.00;6.60;;;;;;;6.15;100.00;99974.05;104003;1264;69335;-55
2023/10/18 02:14:06;;;;;;;;;;;;;;;6.15;100.00;99974.90;103772;1263;349191;-55
2023/10/18 02:16:34;;;;;;;9.50;6.70;;;;;;;6.10;100.00;99969.95;104059;1268;60956;-55
2023/10/18 02:19:02;;;;;;;9.50;6.60;;;;;;;6.04;100.00;99972.50;104238;1257;59775;-55
2023/10/18 02:21:30;;;;;;;;;;;;;;;6.00;100.00;99971.53;104294;1261;71925;-56
2023/10/18 02:23:58;;;;;;;;;;;;;;;5.97;100.00;99968.29;104336;1260;69096;-57
2023/10/18 02:26:31;;;;;;;9.10;7.10;;;;;;;5.99;100.00;99967.72;104386;1256;73341;-56
2023/10/18 02:29:05;;;;;;;8.90;6.80;;;;;;;6.00;100.00;99967.70;104261;1262;61621;-56
2023/10/18 02:31:33;;;;;;;11.10;7.20;;;;;;;6.03;100.00;99967.98;104064;1255;60080;-56
2023/10/18 02:34:04;;;;;;;7.40;6.60;;;;;;;6.03;100.00;99973.38;104375;1256;73628;-55
2023/10/18 02:36:49;;;;;;;8.40;6.80;;;;;;;6.01;100.00;99969.42;104710;1256;70071;-56
2023/10/18 02:39:22;;;;;;;7.30;6.40;;;;;;;6.02;100.00;99971.50;104281;1262;72473;-57
2023/10/18 02:41:51;;;;;;;8.90;6.70;;;;;;;6.03;100.00;99969.92;104492;1263;59774;-56
2023/10/18 02:44:22;;;;;;;10.30;6.90;;;;;;;6.02;100.00;99970.97;104267;1262;59800;-56
2023/10/18 02:46:54;;;;;;;8.20;6.50;;;;;;;6.02;100.00;99969.76;104212;1269;72858;-56
2023/10/18 02:49:27;;;;;;;8.40;6.20;;;;;;;6.04;100.00;99967.98;104312;1269;69154;-57
2023/10/18 02:51:57;;;;;;;8.40;6.20;;;;;;;6.07;100.00;99967.23;104947;1260;72095;-56
2023/10/18 02:54:25;;;;;;;9.50;6.30;;;;;;;6.13;100.00;99964.51;106225;1257;60649;-57
2023/10/18 02:56:53;;;;;;;7.20;6.40;;;;;;;6.15;100.00;99961.86;107905;1255;59869;-56
2023/10/18 02:59:27;;;;;;;;;;;;;;;6.12;100.00;99960.16;107923;1254;72833;-57
2023/10/18 03:01:57;;;;;;;10.10;7.10;;;;;;;6.11;100.00;99958.27;107599;1257;69239;-58
2023/10/18 03:04:27;;;;;;;7.10;6.20;;;;;;;6.05;100.00;99959.63;104994;1254;72372;-56
2023/10/18 03:06:55;;;;;;;6.80;6.10;;;;;;;6.03;100.00;99957.55;107886;1255;61556;-58
2023/10/18 03:09:27;;;;;;;9.80;6.70;;;;;;;6.05;100.00;99954.92;105766;1260;59821;-57
2023/10/18 03:11:56;;;;;;;6.80;6.10;;;;;;;6.09;100.00;99951.36;104214;1263;73278;-57
2023/10/18 03:14:41;;;;;;;10.00;6.50;;;;;;;6.04;100.00;99948.50;104380;1260;69138;-57
2023/10/18 03:17:22;;;;;;;7.90;6.40;;;;;;;6.03;100.00;99946.08;104219;1258;72538;-56
2023/10/18 03:19:56;;;;;;;10.00;7.20;;;;;;;6.02;100.00;99941.22;104189;1260;61500;-57
2023/10/18 03:22:30;;;;;;;8.00;6.90;;;;;;;5.97;100.00;99939.39;104321;1258;59789;-57
2023/10/18 03:24:59;;;;;;;8.60;6.90;;;;;;;5.94;100.00;99938.40;104487;1257;73201;-57
2023/10/18 03:27:31;;;;;;;11.80;6.90;;;;;;;5.94;100.00;99938.55;104357;1263;69070;-57
2023/10/18 03:30:10;;;;;;;11.10;7.30;;;;;;;5.93;100.00;99935.96;104227;1260;72658;-57
2023/10/18 03:32:38;;;;;;;8.90;7.20;;;;;;;5.92;100.00;99937.73;104248;1268;61028;-57
2023/10/18 03:35:09;;;;;;;;;;;;;;;5.95;100.00;99937.67;104355;1262;60660;-56
2023/10/18 03:37:39;;;;;;;11.60;6.60;;;;;;;5.88;100.00;99937.63;104323;1279;72895;-56
2023/10/18 03:40:27;;;;;;;8.80;6.80;;;;;;;5.88;100.00;99939.02;105674;1257;69403;-57
2023/10/18 03:42:57;;;;;;;11.40;7.30;;;;;;;5.86;100.00;99938.36;107819;1257;72329;-58
2023/10/18 03:45:58;;;;;;;6.90;6.20;;;;;;;5.83;100.00;99935.81;104763;1261;60598;-56
2023/10/18 03:48:23;;;;;;;9.70;6.80;;;;;;;5.80;100.00;99939.52;104702;1256;59762;-56
2023/10/18 03:50:54;;;;;;;11.20;6.70;;;;;;;5.79;100.00;99940.92;104581;1258;72915;-56
2023/10/18 03:53:23;;;;;;;9.20;6.90;;;;;;;5.77;100.00;99937.83;104347;1263;69224;-56
2023/10/18 03:55:55;;;;;;;10.60;6.80;;;;;;;5.73;100.00;99937.38;104207;1274;72533;-56
2023/10/18 03:58:25;;;;;;;9.60;7.00;;;;;;;5.72;100.00;99933.23;104366;1263;61587;-56
2023/10/18 04:00:56;;;;;;;7.30;6.60;;;;;;;5.71;100.00;99934.98;103995;1258;60232;-56
2023/10/18 04:03:29;;;;;;;9.20;6.90;;;;;;;5.63;100.00;99936.33;104337;1261;73279;-57
2023/10/18 04:06:03;;;;;;;8.80;6.90;;;;;;;5.59;100.00;99934.50;104408;1262;68642;-58
2023/10/18 04:08:32;;;;;;;9.50;7.20;;;;;;;5.55;100.00;99937.54;104260;1270;71480;-56
2023/10/18 04:11:00;;;;;;;8.00;7.10;;;;;;;5.53;100.00;99935.48;104325;1262;61230;-57
2023/10/18 04:13:35;;;;;;;9.80;7.40;;;;;;;5.48;100.00;99935.38;104417;1260;60138;-57
2023/10/18 04:16:17;;;;;;;9.80;7.10;;;;;;;5.41;100.00;99935.16;104366;1262;73512;-57
2023/10/18 04:18:45;;;;;;;8.30;7.40;;;;;;;5.42;100.00;99932.52;104278;1260;69217;-57
2023/10/18 04:21:15;;;;;;;9.80;7.30;;;;;;;5.42;100.00;99932.17;104364;1273;72921;-57
2023/10/18 04:23:46;;;;;;;8.50;7.30;;;;;;;5.42;100.00;99934.09;104355;1260;59669;-57
2023/10/18 04:26:18;;;;;;;9.90;7.40;;;;;;;5.43;100.00;99935.47;104210;1263;59673;-57
2023/10/18 04:28:48;;;;;;;8.90;7.50;;;;;;;5.44;100.00;99938.08;104268;1261;73714;-57
2023/10/18 04:31:21;;;;;;;8.90;7.30;;;;;;;5.44;100.00;99935.45;104318;1261;69664;-57
2023/10/18 04:33:52;;;;;;;9.60;7.40;;;;;;;5.50;100.00;99937.97;104407;1260;72522;-58
2023/10/18 04:36:20;;;;;;;11.10;7.90;;;;;;;5.53;100.00;99934.09;104304;1263;59756;-57
2023/10/18 04:38:49;;;;;;;9.40;7.50;;;;;;;5.50;100.00;99936.58;104315;1264;59883;-57
2023/10/18 04:44:17;;;;;;;8.40;7.60;;;;;;;5.49;100.00;99943.89;104261;1260;70075;-57
2023/10/18 04:46:52;;;;;;;9.90;7.70;;;;;;;5.52;100.00;99942.29;104121;1261;72360;-57
2023/10/18 04:49:36;;;;;;;9.80;8.10;;;;;;;5.56;100.00;99938.37;104360;1257;59662;-57
2023/10/18 04:52:08;;;;;;;10.90;7.80;;;;;;;5.65;100.00;99936.84;104433;1260;59662;-57
2023/10/18 04:57:07;;;;;;;10.40;7.80;;;;;;;5.73;100.00;99930.42;104194;1260;70128;-58
2023/10/18 04:59:44;;;;;;;12.30;8.50;;;;;;;5.77;100.00;99930.68;104263;1260;72898;-59
2023/10/18 05:02:25;;;;;;;10.60;8.10;;;;;;;5.84;100.00;99928.99;104370;1257;60616;-58
2023/10/18 05:04:55;;;;;;;12.00;8.60;;;;;;;5.88;100.00;99933.45;104514;1273;59822;-58
2023/10/18 05:07:40;;;;;;;12.80;8.20;;;;;;;5.94;100.00;99935.42;104204;1260;73042;-57
2023/10/18 05:10:14;;;;;;;10.80;7.80;;;;;;;5.95;100.00;99937.86;104536;1261;69554;-57
2023/10/18 05:12:49;;;;;;;10.10;7.70;;;;;;;5.91;100.00;99936.87;104663;1262;70978;-59
2023/10/18 05:15:21;;;;;;;10.40;8.30;;;;;;;5.94;100.00;99938.73;104135;1270;60752;-58
2023/10/18 05:18:35;;;;;;;13.00;8.60;;;;;;;5.97;100.00;99940.26;104289;1263;59871;-59
2023/10/18 05:20:46;;;;;;;10.60;8.50;;;;;;;5.99;100.00;99942.31;104361;1263;73667;-59
2023/10/18 05:23:24;;;;;;;9.10;7.80;;;;;;;5.99;100.00;99943.53;104526;1272;68082;-58
2023/10/18 05:26:08;;;;;;;11.00;8.20;;;;;;;5.99;100.00;99946.69;104217;1263;72353;-58
2023/10/18 05:28:47;;;;;;;10.70;8.60;;;;;;;6.03;100.00;99945.20;104393;1263;61542;-58
2023/10/18 05:34:13;;;;;;;12.60;9.30;;;;;;;6.11;100.00;99949.21;104521;1262;72892;-58
2023/10/18 05:42:06;;;;;;;12.00;8.90;;;;;;;6.19;100.00;99955.17;106653;1257;60153;-59
2023/10/18 05:44:41;;;;;;;14.70;8.20;;;;;;;6.30;100.00;99955.12;107429;1258;59800;-58
2023/10/18 05:47:09;;;;;;;11.60;7.70;;;;;;;6.38;100.00;99955.64;104558;1258;72936;-57
2023/10/18 05:49:41;;;;;;;;;;;;;;;6.40;100.00;99957.17;104632;1263;69168;-59
2023/10/18 05:54:39;;;;;;;10.50;8.30;;;;;;;6.54;100.00;99954.11;104640;1260;60606;-59
2023/10/18 05:57:08;;;;;;;9.70;7.70;;;;;;;6.59;100.00;99955.02;104212;1262;60652;-57
2023/10/18 05:59:36;;;;;;;16.50;8.10;;;;;;;6.63;100.00;99949.89;104204;1271;73696;-59
2023/10/18 06:04:51;;;;;;;9.60;8.00;;;;;;;6.77;100.00;99955.16;104243;1258;72160;-58
2023/10/18 06:07:23;;;;;;;10.40;8.60;;;;;;;6.85;100.00;99956.02;104278;1263;60632;-58
2023/10/18 06:10:00;;;;;;;10.30;8.20;;;;;;;6.92;100.00;99956.24;104414;1264;59345;-58
2023/10/18 06:12:30;;;;;;;13.80;8.10;;;;;;;6.97;100.00;99951.92;104890;1258;72812;-58
2023/10/18 06:15:10;;;;;;;10.10;8.10;;;;;;;7.03;100.00;99954.23;104113;1261;69521;-58
2023/10/18 06:17:47;;;;;;;14.20;8.20;;;;;;;7.08;100.00;99954.63;104104;1273;72386;-58
2023/10/18 06:20:27;;;;;;;10.40;8.00;;;;;;;7.14;100.00;99951.71;104986;1257;61614;-58
2023/10/18 06:23:08;;;;;;;11.20;8.40;;;;;;;7.20;100.00;99951.02;104353;1272;61690;-60
2023/10/18 06:25:49;;;;;;;13.20;8.50;;;;;;;7.29;100.00;99952.56;104343;1262;73657;-58
2023/10/18 06:28:24;;;;;;;14.40;9.20;;;;;;;7.32;100.00;99953.00;104148;1262;68604;-59
2023/10/18 06:30:52;;;;;;;12.00;9.40;;;;;;;7.38;100.00;99957.02;104200;1257;72375;-57
2023/10/18 06:33:21;;;;;;;11.10;8.50;;;;;;;7.45;100.00;99958.61;104127;1263;60656;-57
2023/10/18 06:35:52;;;;;;;14.10;9.50;;;;;;;7.48;100.00;99958.55;104144;1257;59941;-58
2023/10/18 06:38:22;;;;;;;12.70;9.20;;;;;;;7.51;100.00;99957.77;105528;1257;73587;-59
2023/10/18 06:40:59;;;;;;;10.40;8.80;;;;;;;7.59;100.00;99956.01;104911;1258;69287;-58
2023/10/18 06:43:36;;;;;;;10.30;9.10;;;;;;;7.65;100.00;99958.65;107810;1257;72364;-59
2023/10/18 06:46:05;;;;;;;10.70;9.10;;;;;;;7.73;100.00;99956.35;106683;1257;60596;-58
2023/10/18 06:48:33;;;;;;;13.50;9.10;;;;;;;7.86;100.00;99957.73;104796;1257;60425;-58
2023/10/18 06:51:11;;;;;;;11.20;9.60;;;;;;;7.93;100.00;99952.83;104621;1257;73970;-58
2023/10/18 06:53:39;;;;;;;15.40;10.80;;;;;;;7.95;100.00;99945.96;104924;1258;69246;-58
2023/10/18 06:56:19;;;;;;;14.70;9.80;;;;;;;8.05;100.00;99947.61;104779;1259;71400;-58
2023/10/18 06:58:47;;;;;;;11.60;10.00;;;;;;;8.12;100.00;99942.73;104189;1262;61051;-58
2023/10/18 07:01:19;;;;;;;12.60;9.30;;;;;;;8.17;100.00;99942.95;104560;1258;60431;-59
2023/10/18 07:03:48;;;;;;;11.90;9.50;;;;;;;8.28;100.00;99940.02;104115;1270;73765;-58
2023/10/18 07:06:24;;;;;;;9.70;8.70;;;;;;;8.36;100.00;99935.05;104947;1257;68376;-58
2023/10/18 07:08:53;;;;;;;11.50;10.10;;;;;;;8.45;100.00;99932.73;104113;1270;74511;-57
2023/10/18 07:11:23;;;;;;;11.40;8.60;;;;;;;8.52;100.00;99928.13;104275;1257;60991;-57
2023/10/18 07:14:12;;;;;;;11.80;8.70;;;;;;;8.66;100.00;99931.41;104611;1257;60683;-58
2023/10/18 07:16:41;;;;;;;9.10;8.10;;;;;;;8.81;100.00;99927.27;104397;1260;72444;-58
2023/10/18 07:21:57;;;;;;;9.00;7.50;;;;;;;9.10;100.00;99918.48;105481;1263;72411;-58
2023/10/18 07:24:32;;;;;;;14.50;7.70;;;;;;;9.20;100.00;99913.63;104080;1261;60647;-58
2023/10/18 07:27:03;;;;;;;11.00;8.30;;;;;;;9.25;100.00;99911.71;104302;1274;61239;-57
2023/10/18 07:29:32;;;;;;;9.00;7.70;;;;;;;9.35;100.00;99912.23;104155;1273;73716;-56
2023/10/18 07:31:59;;;;;;;;;;;;;;;9.43;100.00;99907.25;104793;1260;69166;-57
2023/10/18 07:34:31;;;;;;;9.90;8.00;;;;;;;9.59;100.00;99901.98;104317;1257;72322;-58
2023/10/18 07:37:16;;;;;;;14.60;9.50;;;;;;;9.73;100.00;99898.70;104219;1263;60926;-60
2023/10/18 07:39:49;;;;;;;12.10;7.90;;;;;;;9.87;100.00;99893.84;104154;1272;60571;-57
2023/10/18 07:42:20;;;;;;;8.60;7.60;;;;;;;10.02;100.00;99897.84;104097;1258;72898;-58
2023/10/18 07:44:53;;;;;;;9.00;7.00;;;;;;;10.16;100.00;99895.56;107730;1257;70050;-58
2023/10/18 07:47:25;;;;;;;10.10;6.90;;;;;;;10.36;100.00;99892.42;105939;1257;72510;-59
2023/10/18 07:49:58;;;;;;;11.10;7.10;;;;;;;10.49;99.37;99891.41;104658;1258;61558;-59
2023/10/18 07:52:26;;;;;;;8.30;6.30;;;;;;;10.64;99.29;99888.88;104641;1257;59805;-59
2023/10/18 07:54:54;;;;;;;11.40;6.90;;;;;;;10.79;98.99;99887.08;104602;1260;72966;-58
2023/10/18 07:57:31;;;;;;;8.10;6.30;;;;;;;10.97;97.04;99884.75;104505;1258;68165;-58
2023/10/18 08:02:45;;;;;;;7.40;5.90;;;;;;;11.23;91.86;99878.60;104409;1262;60598;-59
2023/10/18 08:05:18;;;;;;;7.40;6.50;;;;;;;11.37;90.86;99872.94;104547;1258;60793;-59
2023/10/18 08:07:52;;;;;;;6.70;5.70;;;;;;;11.52;90.57;99868.61;104249;1262;73984;-59
2023/10/18 08:10:20;;;;;;;7.60;5.60;;;;;;;11.64;87.47;99866.86;104392;1260;69687;-59
2023/10/18 08:13:31;;;;;;;;;;;;;;;11.75;86.18;99864.46;104404;1263;71493;-60
2023/10/18 08:15:43;;;;;;;5.80;4.50;;;;;;;11.81;81.93;99864.73;104504;1260;61420;-59
2023/10/18 08:18:17;;;;;;;6.40;4.60;;;;;;;11.87;81.32;99863.41;104313;1270;59738;-61
2023/10/18 08:26:06;;;;;;;6.20;5.10;;;;;;;12.09;79.85;99856.85;105051;1253;71964;-61
2023/10/18 08:28:46;;;;;;;6.90;5.10;;;;;;;12.15;77.82;99852.17;104550;1254;60791;-61
2023/10/18 08:31:26;;;;;;;6.50;4.90;;;;;;;12.21;77.95;99850.48;104300;1257;60138;-59
2023/10/18 08:33:55;;;;;;;4.80;4.30;;;;;;;12.32;77.79;99846.96;104374;1257;74783;-60
2023/10/18 08:36:31;;;;;;;;;;;;;;;12.48;76.73;99847.65;104446;1257;70403;-58
2023/10/18 08:39:01;;;;;;;5.00;4.00;;;;;;;12.53;73.92;99844.25;104331;1257;71433;-60
2023/10/18 08:41:33;;;;;;;6.10;4.50;;;;;;;12.50;71.83;99846.33;104449;1256;61061;-60
2023/10/18 08:44:09;;;;;;;5.60;4.40;;;;;;;12.58;71.93;99840.48;105865;1252;60450;-60
2023/10/18 08:46:42;;;;;;;8.20;4.60;;;;;;;12.66;71.13;99835.70;108315;1252;72747;-58
2023/10/18 08:49:12;;;;;;;8.60;6.30;;;;;;;12.77;70.33;99833.22;105066;1254;69551;-58
2023/10/18 08:51:44;;;;;;;6.90;5.20;;;;;;;12.87;70.19;99833.45;104531;1254;72453;-57
2023/10/18 08:54:22;;;;;;;8.40;4.80;;;;;;;12.98;69.63;99835.35;104671;1265;60472;-58
2023/10/18 08:56:51;;;;;;;13.40;7.90;;;;;;;13.10;69.41;99827.93;104948;1255;60565;-57
2023/10/18 08:59:19;;;;;;;10.80;4.90;;;;;;;13.14;68.37;99827.52;105180;1261;74064;-58
2023/10/18 09:04:35;;;;;;;5.90;3.60;;;;;;;13.27;64.64;99824.27;104320;1266;72819;-59
2023/10/18 09:07:18;;;;;;;6.10;3.60;;;;;;;13.36;63.57;99820.29;104360;1260;60565;-59
2023/10/18 09:09:58;;;;;;;6.80;3.50;;;;;;;13.42;62.04;99819.81;104375;1257;60527;-57
2023/10/18 09:13:29;;;;;;;6.40;3.90;;;;;;;13.49;61.54;99810.61;104521;1254;72647;-59
2023/10/18 09:15:28;;;;;;;5.10;3.70;;;;;;;13.57;60.44;99806.68;104459;1266;69189;-59
2023/10/18 09:17:56;;;;;;;4.90;3.70;;;;;;;13.62;60.81;99802.54;104470;1254;72879;-60
2023/10/18 09:20:27;;;;;;;4.70;3.00;;;;;;;13.72;59.98;99795.67;104592;1254;60663;-58
2023/10/18 09:23:02;;;;;;;4.50;3.10;;;;;;;13.83;59.21;99792.14;104257;1254;60840;-58
2023/10/18 09:25:49;;;;;;;5.70;3.50;;;;;;;13.98;57.03;99790.44;104698;1257;74500;-58
2023/10/18 09:28:33;;;;;;;3.20;2.80;;;;;;;14.06;56.71;99787.88;104473;1257;69165;-58
2023/10/18 09:31:12;;;;;;;2.90;2.60;;;;;;;14.14;55.29;99784.80;104579;1256;72333;-57
2023/10/18 09:33:50;;;;;;;4.10;2.60;;;;;;;14.15;53.86;99782.77;104559;1254;60477;-58
2023/10/18 09:36:25;;;;;;;3.20;2.40;;;;;;;14.27;54.03;99777.39;104525;1258;61061;-58
2023/10/18 09:38:54;;;;;;;4.60;3.60;;;;;;;14.49;51.59;99774.02;104483;1254;74291;-58
2023/10/18 09:41:22;;;;;;;13.20;9.50;;;;;;;14.44;50.52;99768.98;104675;1257;69885;-59
2023/10/18 09:43:50;;;;;;;314.10;194.50;;;;;;;14.43;50.18;99764.15;106507;1253;72700;-59
2023/10/18 09:46:20;;;;;;;325.90;166.40;;;;;;;14.45;49.79;99762.64;108379;1251;60001;-59
2023/10/18 09:48:48;;;;;;;93.60;47.60;;;;;;;14.35;50.32;99760.67;108410;1253;60181;-60
2023/10/18 09:51:20;;;;;;;76.20;44.10;;;;;;;14.26;50.75;99760.16;108327;1251;73832;-59
2023/10/18 09:53:55;;;;;;;26.60;11.80;;;;;;;14.06;50.46;99760.88;108265;1251;69206;-60
2023/10/18 09:56:24;;;;;;;21.30;10.10;;;;;;;13.96;51.36;99757.95;108099;1253;72878;-60
2023/10/18 09:59:04;;;;;;;10.60;5.90;;;;;;;13.95;52.48;99749.71;106946;1253;60552;-59
2023/10/18 10:04:14;;;;;;;71.80;38.50;;;;;;;13.88;51.79;99740.77;104403;1257;74022;-59
2023/10/18 10:06:53;;;;;;;174.80;113.30;;;;;;;13.93;52.28;99741.20;104354;1266;69482;-58
2023/10/18 10:09:29;;;;;;;38.70;26.10;;;;;;;13.90;51.82;99740.63;104359;1254;72358;-59
2023/10/18 10:11:57;;;;;;;87.10;52.40;;;;;;;13.86;52.26;99734.70;104438;1254;61600;-61
2023/10/18 10:14:29;;;;;;;;;;;;;;;13.84;53.39;99731.64;105052;1253;60438;-59
2023/10/18 10:17:01;;;;;;;17.10;8.70;;;;;;;13.71;51.75;99726.17;104574;1269;73704;-61
2023/10/18 10:19:32;;;;;;;8.10;4.70;;;;;;;13.61;51.64;99723.38;104645;1253;69686;-60
2023/10/18 10:22:07;;;;;;;3.90;3.10;;;;;;;13.57;52.14;99720.92;104436;1257;72361;-60
2023/10/18 10:24:51;;;;;;;4.70;3.40;;;;;;;13.58;52.06;99717.02;104563;1254;60627;-59
2023/10/18 10:30:03;;;;;;;4.60;2.90;;;;;;;13.83;51.27;99708.98;104362;1253;74382;-57
2023/10/18 10:32:31;;;;;;;2.60;2.20;;;;;;;13.87;50.86;99702.41;104329;1253;70258;-57
2023/10/18 10:35:17;;;;;;;;;;;;;;;13.90;49.91;99699.73;104464;1255;72751;-57
2023/10/18 10:37:50;;;;;;;3.20;2.80;;;;;;;13.86;48.74;99701.73;104557;1257;60116;-59
2023/10/18 10:43:03;;;;;;;4.70;2.80;;;;;;;13.71;49.42;99698.85;104425;1257;74357;-58
2023/10/18 10:45:35;;;;;;;5.10;2.70;;;;;;;13.69;49.65;99698.80;104377;1269;69901;-57
2023/10/18 10:48:21;;;;;;;2.30;2.10;;;;;;;13.66;49.20;99689.79;104456;1253;72448;-57
2023/10/18 10:50:52;;;;;;;3.70;3.00;;;;;;;13.64;49.27;99689.75;104531;1257;60436;-57
2023/10/18 10:53:30;;;;;;;3.90;2.80;;;;;;;13.53;50.52;99688.19;104544;1254;60821;-58
2023/10/18 10:56:01;;;;;;;4.40;3.10;;;;;;;13.45;50.35;99685.67;104830;1253;74495;-58
2023/10/18 10:58:38;;;;;;;3.50;2.70;;;;;;;13.39;50.74;99678.58;104471;1257;69662;-57
2023/10/18 11:01:07;;;;;;;4.00;2.50;;;;;;;13.40;50.80;99679.77;105060;1253;73887;-57
2023/10/18 11:03:54;;;;;;;8.00;3.30;;;;;;;13.37;51.01;99680.64;104562;1254;60408;-58
2023/10/18 11:06:23;;;;;;;4.10;3.20;;;;;;;13.34;51.22;99683.95;104488;1265;60540;-57
2023/10/18 11:08:54;;;;;;;3.90;3.20;;;;;;;13.36;51.33;99679.61;104688;1251;73935;-58
2023/10/18 11:11:22;;;;;;;6.40;3.00;;;;;;;13.32;50.62;99675.96;104390;1252;69960;-57
2023/10/18 11:13:50;;;;;;;4.80;3.20;;;;;;;13.33;51.63;99681.02;104607;1254;72471;-57
2023/10/18 11:16:20;;;;;;;4.60;3.50;;;;;;;13.32;52.13;99677.92;104509;1263;60549;-57
2023/10/18 11:18:49;;;;;;;4.40;3.40;;;;;;;13.31;52.31;99674.27;104384;1253;60901;-58
2023/10/18 11:21:28;;;;;;;4.00;2.90;;;;;;;13.30;52.63;99669.90;105915;1253;74035;-58
2023/10/18 11:24:04;;;;;;;6.30;3.50;;;;;;;13.37;52.85;99667.44;104750;1254;70025;-58
2023/10/18 11:26:40;;;;;;;4.80;3.20;;;;;;;13.38;52.73;99666.86;104910;1253;72538;-59
2023/10/18 11:29:09;;;;;;;8.10;3.60;;;;;;;13.36;52.32;99664.67;104233;1257;60650;-58
2023/10/18 11:31:38;;;;;;;5.10;3.30;;;;;;;13.33;52.90;99663.21;104927;1257;60494;-59
2023/10/18 11:34:06;;;;;;;7.10;5.00;;;;;;;13.27;53.97;99660.70;104436;1257;74539;-59
2023/10/18 11:36:35;;;;;;;5.60;3.50;;;;;;;13.24;54.36;99658.73;104631;1266;69513;-59
2023/10/18 11:41:44;;;;;;;4.80;3.50;;;;;;;13.26;55.00;99651.09;104693;1251;60491;-59
2023/10/18 11:44:16;;;;;;;22.70;12.30;;;;;;;13.27;54.33;99650.50;104336;1260;61873;-58
2023/10/18 11:46:58;;;;;;;49.00;27.90;;;;;;;13.25;54.32;99647.61;104359;1257;74494;-58
2023/10/18 11:49:39;;;;;;;51.20;31.80;;;;;;;13.18;54.43;99642.34;108416;1252;69213;-59
2023/10/18 11:52:17;;;;;;;39.50;27.20;;;;;;;13.16;54.42;99644.91;108474;1251;73388;-60
2023/10/18 11:54:45;;;;;;;;;;;;;;;13.13;54.23;99642.13;108369;1252;59549;-59
2023/10/18 11:57:24;;;;;;;170.60;124.60;;;;;;;13.21;54.18;99636.55;107713;1253;60578;-59
2023/10/18 11:59:54;;;;;;;136.00;78.00;;;;;;;13.29;54.05;99631.61;107119;1253;74312;-59
2023/10/18 12:02:28;;;;;;;98.30;52.60;;;;;;;13.37;53.92;99625.90;104337;1269;69226;-59
2023/10/18 12:04:57;;;;;;;175.90;83.20;;;;;;;13.42;54.10;99623.85;105981;1253;72454;-60
2023/10/18 12:07:25;;;;;;;190.10;83.30;;;;;;;13.47;53.45;99611.45;104275;1263;59966;-59
2023/10/18 12:09:54;;;;;;;174.20;73.60;;;;;;;13.53;52.68;99606.19;104707;1253;60504;-58
2023/10/18 12:12:24;;;;;;;62.70;26.70;;;;;;;13.57;51.78;99607.31;104427;1253;74574;-59
2023/10/18 12:14:52;;;;;;;30.40;14.30;;;;;;;13.59;51.05;99612.87;105048;1254;68310;-59
2023/10/18 12:17:21;;;;;;;26.40;13.00;;;;;;;13.60;51.14;99602.27;104872;1257;72718;-57
2023/10/18 12:19:50;;;;;;;14.90;7.10;;;;;;;13.64;51.47;99600.46;104475;1257;60504;-58
2023/10/18 12:22:18;;;;;;;8.20;4.30;;;;;;;13.69;51.55;99594.88;104892;1254;60865;-58
2023/10/18 12:24:46;;;;;;;12.20;4.00;;;;;;;13.71;51.87;99594.44;104326;1256;73937;-59
2023/10/18 12:30:27;;;;;;;3.60;2.30;;;;;;;13.76;51.47;99592.16;105363;1254;71462;-58
2023/10/18 12:33:04;;;;;;;5.10;3.10;;;;;;;13.73;50.84;99591.66;105098;1255;60779;-58
2023/10/18 12:35:33;;;;;;;3.00;2.10;;;;;;;13.72;51.14;99587.34;104577;1253;60404;-59
2023/10/18 12:38:14;;;;;;;6.00;3.10;;;;;;;13.74;51.95;99580.83;104430;1260;74301;-58
2023/10/18 12:40:51;;;;;;;4.70;3.30;;;;;;;13.81;51.67;99575.02;105518;1254;68802;-58
2023/10/18 12:43:20;;;;;;;3.40;2.70;;;;;;;13.88;51.81;99571.08;104599;1269;73349;-58
2023/10/18 12:45:50;;;;;;;4.90;2.30;;;;;;;13.98;51.45;99568.70;106413;1253;60466;-59
2023/10/18 12:48:24;;;;;;;7.10;3.30;;;;;;;13.93;50.59;99569.20;104360;1257;59867;-60
2023/10/18 12:50:52;;;;;;;7.10;3.00;;;;;;;13.89;50.52;99569.24;104473;1254;74315;-59
2023/10/18 12:55:58;;;;;;;5.10;2.80;;;;;;;13.90;51.17;99562.31;104440;1253;72505;-58
2023/10/18 12:58:30;;;;;;;3.20;2.70;;;;;;;13.92;50.88;99560.83;104378;1253;60682;-58
2023/10/18 13:01:33;;;;;;;5.90;2.80;;;;;;;13.91;51.21;99557.34;104374;1254;60559;-59
2023/10/18 13:04:06;;;;;;;4.40;2.50;;;;;;;13.88;51.49;99556.10;104432;1256;73928;-59
2023/10/18 13:06:44;;;;;;;3.00;2.40;;;;;;;13.86;51.39;99547.98;104400;1256;70521;-58
2023/10/18 13:09:15;;;;;;;3.10;2.70;;;;;;;13.86;51.53;99545.66;105290;1254;71522;-58
2023/10/18 13:14:24;;;;;;;4.70;3.20;;;;;;;13.81;51.53;99538.73;105346;1251;60519;-58
2023/10/18 13:16:53;;;;;;;6.10;2.80;;;;;;;13.79;51.03;99533.01;104558;1257;73726;-59
2023/10/18 13:19:23;;;;;;;2.80;2.50;;;;;;;13.79;51.24;99529.88;105121;1253;69714;-59
2023/10/18 13:21:51;;;;;;;4.70;2.80;;;;;;;13.78;51.58;99528.47;104671;1263;72496;-60
2023/10/18 13:26:52;;;;;;;5.00;2.80;;;;;;;13.83;51.39;99519.72;104621;1256;59641;-57
2023/10/18 13:31:50;;;;;;;5.40;3.50;;;;;;;13.80;51.47;99519.72;104448;1257;70519;-59
2023/10/18 13:34:21;;;;;;;247.60;109.10;;;;;;;13.79;51.48;99517.66;104321;1267;73184;-59
2023/10/18 13:36:50;;;;;;;157.90;107.20;;;;;;;13.79;51.48;99518.89;104407;1256;60546;-58
2023/10/18 13:39:18;;;;;;;108.60;67.20;;;;;;;13.81;51.27;99516.13;104625;1260;59551;-58
2023/10/18 13:41:49;;;;;;;142.40;78.40;;;;;;;13.79;50.37;99511.67;104588;1256;74443;-59
2023/10/18 13:44:19;;;;;;;498.80;274.20;;;;;;;13.73;50.41;99509.58;104450;1266;69322;-59
2023/10/18 13:46:48;;;;;;;156.70;64.90;;;;;;;13.67;50.67;99505.34;105847;1253;72470;-59
2023/10/18 13:49:35;;;;;;;171.50;61.00;;;;;;;13.63;50.58;99505.36;108423;1251;60754;-60
2023/10/18 13:52:04;;;;;;;79.70;30.70;;;;;;;13.65;50.87;99502.27;105182;1253;60610;-58
2023/10/18 13:54:34;;;;;;;180.60;78.50;;;;;;;13.64;50.64;99496.52;104785;1253;74771;-57
2023/10/18 13:57:02;;;;;;;123.90;49.70;;;;;;;13.65;50.81;99495.96;105066;1254;69589;-59
2023/10/18 13:59:30;;;;;;;87.40;38.40;;;;;;;13.67;51.01;99490.39;105779;1253;73468;-60
2023/10/18 14:01:58;;;;;;;32.00;13.80;;;;;;;13.72;51.21;99487.29;104929;1256;60364;-60
2023/10/18 14:04:28;;;;;;;;;;;;;;;13.74;51.10;99484.14;104452;1256;60625;-58
2023/10/18 14:06:58;;;;;;;10.50;5.60;;;;;;;13.77;50.93;99477.11;104714;1252;75748;-58
2023/10/18 14:09:32;;;;;;;6.60;4.20;;;;;;;13.77;51.01;99481.17;104778;1256;69036;-57
2023/10/18 14:12:01;;;;;;;5.40;3.30;;;;;;;13.71;50.83;99477.13;104477;1254;72507;-56
2023/10/18 14:14:31;;;;;;;8.90;5.70;;;;;;;13.68;51.07;99474.98;104083;1257;403997;-57
2023/10/18 14:17:44;;;;;;;5.70;3.80;;;;;;;13.26;52.64;99475.38;101309;1295;601440;-57
2023/10/18 14:20:12;;;;;;;4.50;3.40;;;;;;;13.68;50.85;99467.80;103841;1267;59887;-59
2023/10/18 14:22:43;;;;;;;8.50;4.30;;;;;;;13.66;50.99;99467.19;103611;1273;59668;-57
2023/10/18 14:25:13;;;;;;;7.60;5.30;;;;;;;13.65;51.08;99466.55;103762;1271;71907;-60
2023/10/18 14:27:41;;;;;;;17.00;7.90;;;;;;;13.63;50.96;99463.65;103724;1270;69207;-60
2023/10/18 14:30:12;;;;;;;6.30;5.00;;;;;;;13.61;51.32;99461.96;103718;1267;73232;-61
2023/10/18 14:32:41;;;;;;;8.60;6.80;;;;;;;13.61;51.77;99458.84;103782;1264;60893;-59
2023/10/18 14:35:16;;;;;;;5.70;4.60;;;;;;;13.58;51.78;99457.75;103981;1267;59903;-60
2023/10/18 14:37:45;;;;;;;6.80;4.30;;;;;;;13.54;51.87;99457.80;104116;1277;71653;-62
2023/10/18 14:40:13;;;;;;;6.40;4.10;;;;;;;13.52;52.10;99457.46;103791;1271;70617;-60
2023/10/18 14:42:41;;;;;;;9.80;5.00;;;;;;;13.52;52.00;99451.39;104010;1267;72496;-60
2023/10/18 14:45:10;;;;;;;15.20;7.40;;;;;;;13.55;52.21;99446.14;103943;1264;59807;-57